sensor_id;sensor_type;location;lat;lon;timestamp;temperature;humidity
23114;DHT22;11726;50.122;8.832;2023-02-02T00:01:54;7.70;99.90
23114;DHT22;11726;50.122;8.832;2023-02-02T00:04:26;7.70;99.90
23114;DHT22;11726;50.122;8.832;2023-02-02T00:06:54;7.70;99.90
23114;DHT22;11726;50.122;8.832;2023-02-02T00:09:23;7.60;99.90
23114;DHT22;11726;50.122;8.832;2023-02-02T00:11:51;7.60;99.90
23114;DHT22;11726;50.122;8.832;2023-02-02T00:14:18;7.60;99.90
23114;DHT22;11726;50.122;8.832;2023-02-02T00:16:52;7.60;99.90
23114;DHT22;11726;50.122;8.832;2023-02-02T00:19:22;7.60;99.90
23114;DHT22;11726;50.122;8.832;2023-02-02T00:21:50;7.70;99.90
23114;DHT22;11726;50.122;8.832;2023-02-02T00:24:17;7.70;99.90
23114;DHT22;11726;50.122;8.832;2023-02-02T00:26:46;7.70;99.90
23114;DHT22;11726;50.122;8.832;2023-02-02T00:29:22;7.60;99.90
23114;DHT22;11726;50.122;8.832;2023-02-02T00:31:49;7.60;99.90
23114;DHT22;11726;50.122;8.832;2023-02-02T00:34:17;7.70;99.90
23114;DHT22;11726;50.122;8.832;2023-02-02T00:36:44;7.70;99.90
23114;DHT22;11726;50.122;8.832;2023-02-02T00:39:15;7.70;99.90
23114;DHT22;11726;50.122;8.832;2023-02-02T00:41:44;7.70;99.90
23114;DHT22;11726;50.122;8.832;2023-02-02T00:44:11;7.70;99.90
23114;DHT22;11726;50.122;8.832;2023-02-02T00:46:56;7.70;99.90
23114;DHT22;11726;50.122;8.832;2023-02-02T00:49:23;7.80;99.90
23114;DHT22;11726;50.122;8.832;2023-02-02T00:51:49;7.80;99.90
23114;DHT22;11726;50.122;8.832;2023-02-02T00:54:16;7.80;99.90
23114;DHT22;11726;50.122;8.832;2023-02-02T00:56:43;7.80;99.90
23114;DHT22;11726;50.122;8.832;2023-02-02T00:59:09;7.80;99.90
23114;DHT22;11726;50.122;8.832;2023-02-02T01:01:36;7.80;99.90
23114;DHT22;11726;50.122;8.832;2023-02-02T01:04:03;7.80;99.90
23114;DHT22;11726;50.122;8.832;2023-02-02T01:06:29;7.90;99.90
23114;DHT22;11726;50.122;8.832;2023-02-02T01:08:56;7.90;99.90
23114;DHT22;11726;50.122;8.832;2023-02-02T01:11:23;7.90;99.90
23114;DHT22;11726;50.122;8.832;2023-02-02T01:13:51;7.90;99.90
23114;DHT22;11726;50.122;8.832;2023-02-02T01:16:17;7.90;99.90
23114;DHT22;11726;50.122;8.832;2023-02-02T01:18:44;7.90;99.90
23114;DHT22;11726;50.122;8.832;2023-02-02T01:21:11;7.90;99.90
23114;DHT22;11726;50.122;8.832;2023-02-02T01:23:38;7.90;99.90
23114;DHT22;11726;50.122;8.832;2023-02-02T01:26:08;7.90;99.90
23114;DHT22;11726;50.122;8.832;2023-02-02T01:28:35;8.00;99.90
23114;DHT22;11726;50.122;8.832;2023-02-02T01:31:16;8.00;99.90
23114;DHT22;11726;50.122;8.832;2023-02-02T01:33:45;8.00;99.90
23114;DHT22;11726;50.122;8.832;2023-02-02T01:36:14;7.80;99.90
23114;DHT22;11726;50.122;8.832;2023-02-02T01:38:42;7.70;99.90
23114;DHT22;11726;50.122;8.832;2023-02-02T01:41:12;7.60;99.90
23114;DHT22;11726;50.122;8.832;2023-02-02T01:46:19;7.40;99.90
23114;DHT22;11726;50.122;8.832;2023-02-02T01:48:49;7.50;99.90
23114;DHT22;11726;50.122;8.832;2023-02-02T01:51:19;7.60;99.90
23114;DHT22;11726;50.122;8.832;2023-02-02T01:53:48;7.50;99.90
23114;DHT22;11726;50.122;8.832;2023-02-02T01:56:32;7.40;99.90
23114;DHT22;11726;50.122;8.832;2023-02-02T01:59:01;7.40;99.90
23114;DHT22;11726;50.122;8.832;2023-02-02T02:01:28;7.30;99.90
23114;DHT22;11726;50.122;8.832;2023-02-02T02:03:55;7.30;99.90
23114;DHT22;11726;50.122;8.832;2023-02-02T02:06:22;7.30;99.90
23114;DHT22;11726;50.122;8.832;2023-02-02T02:09:01;7.30;99.90
23114;DHT22;11726;50.122;8.832;2023-02-02T02:11:30;7.30;99.90
23114;DHT22;11726;50.122;8.832;2023-02-02T02:14:00;7.30;99.90
23114;DHT22;11726;50.122;8.832;2023-02-02T02:25:57;7.40;99.90
23114;DHT22;11726;50.122;8.832;2023-02-02T02:29:01;7.40;99.90
23114;DHT22;11726;50.122;8.832;2023-02-02T02:31:58;7.40;99.90
23114;DHT22;11726;50.122;8.832;2023-02-02T02:34:54;7.40;99.90
23114;DHT22;11726;50.122;8.832;2023-02-02T02:40:39;7.40;99.90
23114;DHT22;11726;50.122;8.832;2023-02-02T02:43:24;7.40;99.90
23114;DHT22;11726;50.122;8.832;2023-02-02T02:45:52;7.40;99.90
23114;DHT22;11726;50.122;8.832;2023-02-02T02:48:19;7.30;99.90
23114;DHT22;11726;50.122;8.832;2023-02-02T02:50:46;7.40;99.90
23114;DHT22;11726;50.122;8.832;2023-02-02T02:53:16;7.50;99.90
23114;DHT22;11726;50.122;8.832;2023-02-02T03:01:16;7.50;99.90
23114;DHT22;11726;50.122;8.832;2023-02-02T03:04:09;7.40;99.90
23114;DHT22;11726;50.122;8.832;2023-02-02T03:07:03;7.50;99.90
23114;DHT22;11726;50.122;8.832;2023-02-02T03:09:36;7.40;99.90
23114;DHT22;11726;50.122;8.832;2023-02-02T03:12:05;7.40;99.90
23114;DHT22;11726;50.122;8.832;2023-02-02T03:14:36;7.40;99.90
23114;DHT22;11726;50.122;8.832;2023-02-02T03:17:02;7.40;99.90
23114;DHT22;11726;50.122;8.832;2023-02-02T03:19:29;7.40;99.90
23114;DHT22;11726;50.122;8.832;2023-02-02T03:21:56;7.40;99.90
23114;DHT22;11726;50.122;8.832;2023-02-02T03:24:22;7.40;99.90
23114;DHT22;11726;50.122;8.832;2023-02-02T03:26:49;7.40;99.90
23114;DHT22;11726;50.122;8.832;2023-02-02T03:29:17;7.40;99.90
23114;DHT22;11726;50.122;8.832;2023-02-02T03:31:45;7.40;99.90
23114;DHT22;11726;50.122;8.832;2023-02-02T03:34:12;7.40;99.90
23114;DHT22;11726;50.122;8.832;2023-02-02T03:36:38;7.40;99.90
23114;DHT22;11726;50.122;8.832;2023-02-02T03:39:05;7.50;99.90
23114;DHT22;11726;50.122;8.832;2023-02-02T03:41:31;7.50;99.90
23114;DHT22;11726;50.122;8.832;2023-02-02T03:43:58;7.40;99.90
23114;DHT22;11726;50.122;8.832;2023-02-02T03:46:24;7.40;99.90
23114;DHT22;11726;50.122;8.832;2023-02-02T03:48:51;7.40;99.90
23114;DHT22;11726;50.122;8.832;2023-02-02T03:51:18;7.40;99.90
23114;DHT22;11726;50.122;8.832;2023-02-02T03:53:44;7.40;99.90
23114;DHT22;11726;50.122;8.832;2023-02-02T03:56:13;7.40;99.90
23114;DHT22;11726;50.122;8.832;2023-02-02T03:58:40;7.40;99.90
23114;DHT22;11726;50.122;8.832;2023-02-02T04:01:10;7.40;99.90
23114;DHT22;11726;50.122;8.832;2023-02-02T04:03:37;7.40;99.90
23114;DHT22;11726;50.122;8.832;2023-02-02T04:06:04;7.40;99.90
23114;DHT22;11726;50.122;8.832;2023-02-02T04:08:31;7.40;99.90
23114;DHT22;11726;50.122;8.832;2023-02-02T04:10:57;7.40;99.90
23114;DHT22;11726;50.122;8.832;2023-02-02T04:13:24;7.40;99.90
23114;DHT22;11726;50.122;8.832;2023-02-02T04:15:59;7.50;99.90
23114;DHT22;11726;50.122;8.832;2023-02-02T04:18:26;7.50;99.90
23114;DHT22;11726;50.122;8.832;2023-02-02T04:21:00;7.50;99.90
23114;DHT22;11726;50.122;8.832;2023-02-02T04:23:28;7.50;99.90
23114;DHT22;11726;50.122;8.832;2023-02-02T04:25:55;7.50;99.90
23114;DHT22;11726;50.122;8.832;2023-02-02T04:28:22;7.60;99.90
23114;DHT22;11726;50.122;8.832;2023-02-02T04:30:50;7.60;99.90
23114;DHT22;11726;50.122;8.832;2023-02-02T04:33:18;7.60;99.90
23114;DHT22;11726;50.122;8.832;2023-02-02T04:35:44;7.70;99.90
23114;DHT22;11726;50.122;8.832;2023-02-02T04:38:11;7.70;99.90
23114;DHT22;11726;50.122;8.832;2023-02-02T04:40:42;7.60;99.90
23114;DHT22;11726;50.122;8.832;2023-02-02T04:43:09;7.70;99.90
23114;DHT22;11726;50.122;8.832;2023-02-02T04:45:36;7.60;99.90
23114;DHT22;11726;50.122;8.832;2023-02-02T04:48:04;7.60;99.90
23114;DHT22;11726;50.122;8.832;2023-02-02T04:50:31;7.70;99.90
23114;DHT22;11726;50.122;8.832;2023-02-02T04:52:57;7.70;99.90
23114;DHT22;11726;50.122;8.832;2023-02-02T04:55:24;7.80;99.90
23114;DHT22;11726;50.122;8.832;2023-02-02T04:57:51;7.70;99.90
23114;DHT22;11726;50.122;8.832;2023-02-02T05:00:18;7.80;99.90
23114;DHT22;11726;50.122;8.832;2023-02-02T05:02:44;7.70;99.90
23114;DHT22;11726;50.122;8.832;2023-02-02T05:05:12;7.80;99.90
23114;DHT22;11726;50.122;8.832;2023-02-02T05:07:39;7.80;99.90
23114;DHT22;11726;50.122;8.832;2023-02-02T05:10:07;7.70;99.90
23114;DHT22;11726;50.122;8.832;2023-02-02T05:12:34;7.80;99.90
23114;DHT22;11726;50.122;8.832;2023-02-02T05:15:00;7.80;99.90
23114;DHT22;11726;50.122;8.832;2023-02-02T05:17:28;7.80;99.90
23114;DHT22;11726;50.122;8.832;2023-02-02T05:19:55;7.80;99.90
23114;DHT22;11726;50.122;8.832;2023-02-02T05:22:22;7.70;99.90
23114;DHT22;11726;50.122;8.832;2023-02-02T05:24:49;7.80;99.90
23114;DHT22;11726;50.122;8.832;2023-02-02T05:27:15;7.80;99.90
23114;DHT22;11726;50.122;8.832;2023-02-02T05:29:42;7.80;99.90
23114;DHT22;11726;50.122;8.832;2023-02-02T05:32:09;7.80;99.90
23114;DHT22;11726;50.122;8.832;2023-02-02T05:34:35;7.80;99.90
23114;DHT22;11726;50.122;8.832;2023-02-02T05:37:02;7.80;99.90
23114;DHT22;11726;50.122;8.832;2023-02-02T05:39:28;7.90;99.90
23114;DHT22;11726;50.122;8.832;2023-02-02T05:41:55;7.90;99.90
23114;DHT22;11726;50.122;8.832;2023-02-02T05:44:21;7.90;99.90
23114;DHT22;11726;50.122;8.832;2023-02-02T05:46:48;7.80;99.90
23114;DHT22;11726;50.122;8.832;2023-02-02T05:49:15;7.80;99.90
23114;DHT22;11726;50.122;8.832;2023-02-02T05:51:45;7.90;99.90
23114;DHT22;11726;50.122;8.832;2023-02-02T05:54:12;7.80;99.90
23114;DHT22;11726;50.122;8.832;2023-02-02T05:56:42;7.90;99.90
23114;DHT22;11726;50.122;8.832;2023-02-02T05:59:09;7.90;99.90
23114;DHT22;11726;50.122;8.832;2023-02-02T06:05:23;7.90;99.90
23114;DHT22;11726;50.122;8.832;2023-02-02T06:07:50;7.90;99.90
23114;DHT22;11726;50.122;8.832;2023-02-02T06:10:17;7.90;99.90
23114;DHT22;11726;50.122;8.832;2023-02-02T06:12:44;7.90;99.90
23114;DHT22;11726;50.122;8.832;2023-02-02T06:15:10;7.90;99.90
23114;DHT22;11726;50.122;8.832;2023-02-02T06:17:37;7.80;99.90
23114;DHT22;11726;50.122;8.832;2023-02-02T06:20:04;7.90;99.90
23114;DHT22;11726;50.122;8.832;2023-02-02T06:22:31;7.90;99.90
23114;DHT22;11726;50.122;8.832;2023-02-02T06:24:58;7.80;99.90
23114;DHT22;11726;50.122;8.832;2023-02-02T06:27:24;7.80;99.90
23114;DHT22;11726;50.122;8.832;2023-02-02T06:29:51;7.80;99.90
23114;DHT22;11726;50.122;8.832;2023-02-02T06:32:17;7.80;99.90
23114;DHT22;11726;50.122;8.832;2023-02-02T06:34:44;7.80;99.90
23114;DHT22;11726;50.122;8.832;2023-02-02T06:37:11;7.80;99.90
23114;DHT22;11726;50.122;8.832;2023-02-02T06:39:37;7.80;99.90
23114;DHT22;11726;50.122;8.832;2023-02-02T06:42:04;7.80;99.90
23114;DHT22;11726;50.122;8.832;2023-02-02T06:44:46;7.80;99.90
23114;DHT22;11726;50.122;8.832;2023-02-02T06:47:12;7.80;99.90
23114;DHT22;11726;50.122;8.832;2023-02-02T06:49:39;7.70;99.90
23114;DHT22;11726;50.122;8.832;2023-02-02T06:52:06;7.70;99.90
23114;DHT22;11726;50.122;8.832;2023-02-02T06:54:32;7.70;99.90
23114;DHT22;11726;50.122;8.832;2023-02-02T06:56:59;7.70;99.90
23114;DHT22;11726;50.122;8.832;2023-02-02T06:59:26;7.80;99.90
23114;DHT22;11726;50.122;8.832;2023-02-02T07:01:52;7.80;99.90
23114;DHT22;11726;50.122;8.832;2023-02-02T07:04:19;7.80;99.90
23114;DHT22;11726;50.122;8.832;2023-02-02T07:06:45;7.80;99.90
23114;DHT22;11726;50.122;8.832;2023-02-02T07:09:12;7.80;99.90
23114;DHT22;11726;50.122;8.832;2023-02-02T07:11:39;7.80;99.90
23114;DHT22;11726;50.122;8.832;2023-02-02T07:14:11;7.80;99.90
23114;DHT22;11726;50.122;8.832;2023-02-02T07:16:38;7.80;99.90
23114;DHT22;11726;50.122;8.832;2023-02-02T07:19:04;7.80;99.90
23114;DHT22;11726;50.122;8.832;2023-02-02T07:21:31;7.90;99.90
23114;DHT22;11726;50.122;8.832;2023-02-02T07:24:03;8.00;99.90
23114;DHT22;11726;50.122;8.832;2023-02-02T07:26:30;8.00;99.90
23114;DHT22;11726;50.122;8.832;2023-02-02T07:28:57;8.00;99.90
23114;DHT22;11726;50.122;8.832;2023-02-02T07:31:25;8.10;99.90
23114;DHT22;11726;50.122;8.832;2023-02-02T07:33:53;8.10;99.90
23114;DHT22;11726;50.122;8.832;2023-02-02T07:36:21;8.10;99.90
23114;DHT22;11726;50.122;8.832;2023-02-02T07:38:51;8.10;99.90
23114;DHT22;11726;50.122;8.832;2023-02-02T07:41:19;8.20;99.90
23114;DHT22;11726;50.122;8.832;2023-02-02T07:43:47;8.10;99.90
23114;DHT22;11726;50.122;8.832;2023-02-02T07:46:15;8.20;99.90
23114;DHT22;11726;50.122;8.832;2023-02-02T07:48:41;8.20;99.90
23114;DHT22;11726;50.122;8.832;2023-02-02T07:51:11;8.20;99.90
23114;DHT22;11726;50.122;8.832;2023-02-02T07:53:38;8.20;99.90
23114;DHT22;11726;50.122;8.832;2023-02-02T07:56:22;8.20;99.90
23114;DHT22;11726;50.122;8.832;2023-02-02T07:58:51;8.20;99.90
23114;DHT22;11726;50.122;8.832;2023-02-02T08:01:18;8.00;99.90
23114;DHT22;11726;50.122;8.832;2023-02-02T08:03:46;8.00;99.90
23114;DHT22;11726;50.122;8.832;2023-02-02T08:06:25;8.10;99.90
23114;DHT22;11726;50.122;8.832;2023-02-02T08:08:53;8.00;99.90
23114;DHT22;11726;50.122;8.832;2023-02-02T08:11:22;8.00;99.90
23114;DHT22;11726;50.122;8.832;2023-02-02T08:13:51;8.00;99.90
23114;DHT22;11726;50.122;8.832;2023-02-02T08:16:19;8.10;99.90
23114;DHT22;11726;50.122;8.832;2023-02-02T08:18:46;8.20;99.90
23114;DHT22;11726;50.122;8.832;2023-02-02T08:21:13;8.10;99.90
23114;DHT22;11726;50.122;8.832;2023-02-02T08:23:41;8.00;99.90
23114;DHT22;11726;50.122;8.832;2023-02-02T08:26:16;8.20;99.90
23114;DHT22;11726;50.122;8.832;2023-02-02T08:28:46;8.20;99.90
23114;DHT22;11726;50.122;8.832;2023-02-02T08:31:16;8.30;99.90
23114;DHT22;11726;50.122;8.832;2023-02-02T08:33:43;8.20;99.90
23114;DHT22;11726;50.122;8.832;2023-02-02T08:36:14;8.20;99.90
23114;DHT22;11726;50.122;8.832;2023-02-02T08:38:41;8.30;99.90
23114;DHT22;11726;50.122;8.832;2023-02-02T08:41:10;8.30;99.90
23114;DHT22;11726;50.122;8.832;2023-02-02T08:43:38;8.30;99.90
23114;DHT22;11726;50.122;8.832;2023-02-02T08:46:08;8.30;99.90
23114;DHT22;11726;50.122;8.832;2023-02-02T08:48:35;8.40;99.90
23114;DHT22;11726;50.122;8.832;2023-02-02T08:51:03;8.40;99.90
23114;DHT22;11726;50.122;8.832;2023-02-02T08:53:31;8.40;99.90
23114;DHT22;11726;50.122;8.832;2023-02-02T08:56:03;8.40;99.90
23114;DHT22;11726;50.122;8.832;2023-02-02T08:58:30;8.40;99.90
23114;DHT22;11726;50.122;8.832;2023-02-02T09:01:11;8.50;99.90
23114;DHT22;11726;50.122;8.832;2023-02-02T09:03:38;8.50;99.90
23114;DHT22;11726;50.122;8.832;2023-02-02T09:06:07;8.50;99.90
23114;DHT22;11726;50.122;8.832;2023-02-02T09:08:34;8.50;99.90
23114;DHT22;11726;50.122;8.832;2023-02-02T09:11:16;8.60;99.90
23114;DHT22;11726;50.122;8.832;2023-02-02T09:13:44;8.60;99.90
23114;DHT22;11726;50.122;8.832;2023-02-02T09:16:13;8.60;99.90
23114;DHT22;11726;50.122;8.832;2023-02-02T09:18:41;8.60;99.90
23114;DHT22;11726;50.122;8.832;2023-02-02T09:21:10;8.50;99.90
23114;DHT22;11726;50.122;8.832;2023-02-02T09:23:38;8.60;99.90
23114;DHT22;11726;50.122;8.832;2023-02-02T09:28:45;8.60;99.90
23114;DHT22;11726;50.122;8.832;2023-02-02T09:31:12;8.60;99.90
23114;DHT22;11726;50.122;8.832;2023-02-02T09:33:39;8.70;99.90
23114;DHT22;11726;50.122;8.832;2023-02-02T09:36:15;8.60;99.90
23114;DHT22;11726;50.122;8.832;2023-02-02T09:38:43;8.70;99.90
23114;DHT22;11726;50.122;8.832;2023-02-02T09:47:16;8.70;99.90
23114;DHT22;11726;50.122;8.832;2023-02-02T09:50:14;8.70;99.90
23114;DHT22;11726;50.122;8.832;2023-02-02T09:52:44;8.70;99.90
23114;DHT22;11726;50.122;8.832;2023-02-02T09:55:35;8.70;99.90
23114;DHT22;11726;50.122;8.832;2023-02-02T09:58:15;8.60;99.90
23114;DHT22;11726;50.122;8.832;2023-02-02T10:00:55;8.60;99.90
23114;DHT22;11726;50.122;8.832;2023-02-02T10:03:35;8.70;99.90
23114;DHT22;11726;50.122;8.832;2023-02-02T10:09:00;8.70;99.90
23114;DHT22;11726;50.122;8.832;2023-02-02T10:11:40;8.70;99.90
23114;DHT22;11726;50.122;8.832;2023-02-02T10:14:26;8.70;99.90
23114;DHT22;11726;50.122;8.832;2023-02-02T10:16:56;8.70;99.90
23114;DHT22;11726;50.122;8.832;2023-02-02T10:19:25;8.70;99.90
23114;DHT22;11726;50.122;8.832;2023-02-02T10:22:10;8.60;99.90
23114;DHT22;11726;50.122;8.832;2023-02-02T10:24:38;8.70;99.90
23114;DHT22;11726;50.122;8.832;2023-02-02T10:27:10;8.70;99.90
23114;DHT22;11726;50.122;8.832;2023-02-02T10:29:57;8.70;99.90
23114;DHT22;11726;50.122;8.832;2023-02-02T10:32:33;8.70;99.90
23114;DHT22;11726;50.122;8.832;2023-02-02T10:37:51;8.70;99.90
23114;DHT22;11726;50.122;8.832;2023-02-02T10:46:27;8.90;99.90
23114;DHT22;11726;50.122;8.832;2023-02-02T10:49:26;8.90;99.90
23114;DHT22;11726;50.122;8.832;2023-02-02T10:51:58;8.90;99.90
23114;DHT22;11726;50.122;8.832;2023-02-02T10:54:41;9.00;99.90
23114;DHT22;11726;50.122;8.832;2023-02-02T11:02:41;9.00;99.90
23114;DHT22;11726;50.122;8.832;2023-02-02T11:05:20;9.00;99.90
23114;DHT22;11726;50.122;8.832;2023-02-02T11:08:12;9.10;99.90
23114;DHT22;11726;50.122;8.832;2023-02-02T11:10:41;9.10;99.90
23114;DHT22;11726;50.122;8.832;2023-02-02T11:13:15;9.00;99.90
23114;DHT22;11726;50.122;8.832;2023-02-02T11:15:42;9.10;99.90
23114;DHT22;11726;50.122;8.832;2023-02-02T11:18:29;9.20;99.90
23114;DHT22;11726;50.122;8.832;2023-02-02T11:20:56;9.20;99.90
23114;DHT22;11726;50.122;8.832;2023-02-02T11:23:25;9.20;99.90
23114;DHT22;11726;50.122;8.832;2023-02-02T11:26:00;9.20;99.90
23114;DHT22;11726;50.122;8.832;2023-02-02T11:28:32;9.20;99.90
23114;DHT22;11726;50.122;8.832;2023-02-02T11:31:00;9.20;99.90
23114;DHT22;11726;50.122;8.832;2023-02-02T11:33:34;9.20;99.90
23114;DHT22;11726;50.122;8.832;2023-02-02T11:36:04;9.20;99.90
23114;DHT22;11726;50.122;8.832;2023-02-02T11:38:31;9.20;99.90
23114;DHT22;11726;50.122;8.832;2023-02-02T11:40:59;9.20;99.90
23114;DHT22;11726;50.122;8.832;2023-02-02T11:43:35;9.00;99.90
23114;DHT22;11726;50.122;8.832;2023-02-02T11:46:17;9.00;99.90
23114;DHT22;11726;50.122;8.832;2023-02-02T11:49:00;8.90;99.90
23114;DHT22;11726;50.122;8.832;2023-02-02T11:51:29;9.00;99.90
23114;DHT22;11726;50.122;8.832;2023-02-02T11:56:28;9.00;99.90
23114;DHT22;11726;50.122;8.832;2023-02-02T11:58:56;9.00;99.90
23114;DHT22;11726;50.122;8.832;2023-02-02T12:01:31;8.90;99.90
23114;DHT22;11726;50.122;8.832;2023-02-02T12:04:00;8.80;99.90
23114;DHT22;11726;50.122;8.832;2023-02-02T12:06:35;8.70;99.90
23114;DHT22;11726;50.122;8.832;2023-02-02T12:09:09;8.70;99.90
23114;DHT22;11726;50.122;8.832;2023-02-02T12:22:51;8.90;99.90
23114;DHT22;11726;50.122;8.832;2023-02-02T12:25:37;8.90;99.90
23114;DHT22;11726;50.122;8.832;2023-02-02T12:28:31;9.10;99.90
23114;DHT22;11726;50.122;8.832;2023-02-02T12:31:29;9.10;99.90
23114;DHT22;11726;50.122;8.832;2023-02-02T12:34:11;9.20;99.90
23114;DHT22;11726;50.122;8.832;2023-02-02T12:37:03;9.20;99.90
23114;DHT22;11726;50.122;8.832;2023-02-02T12:39:32;9.20;99.90
23114;DHT22;11726;50.122;8.832;2023-02-02T12:42:22;9.20;99.90
23114;DHT22;11726;50.122;8.832;2023-02-02T12:45:21;9.20;99.90
23114;DHT22;11726;50.122;8.832;2023-02-02T12:53:34;9.30;99.90
23114;DHT22;11726;50.122;8.832;2023-02-02T13:02:04;9.20;99.90
23114;DHT22;11726;50.122;8.832;2023-02-02T13:07:43;9.20;99.90
23114;DHT22;11726;50.122;8.832;2023-02-02T13:10:17;9.30;99.90
23114;DHT22;11726;50.122;8.832;2023-02-02T13:12:53;9.30;99.90
23114;DHT22;11726;50.122;8.832;2023-02-02T13:15:21;9.30;99.90
23114;DHT22;11726;50.122;8.832;2023-02-02T13:17:58;9.40;99.90
23114;DHT22;11726;50.122;8.832;2023-02-02T13:20:34;9.50;99.90
23114;DHT22;11726;50.122;8.832;2023-02-02T13:23:17;9.50;99.90
23114;DHT22;11726;50.122;8.832;2023-02-02T13:31:56;9.50;99.90
23114;DHT22;11726;50.122;8.832;2023-02-02T13:34:46;9.50;99.90
23114;DHT22;11726;50.122;8.832;2023-02-02T13:37:24;9.50;99.90
23114;DHT22;11726;50.122;8.832;2023-02-02T13:40:05;9.60;99.90
23114;DHT22;11726;50.122;8.832;2023-02-02T13:45:46;9.60;99.90
23114;DHT22;11726;50.122;8.832;2023-02-02T13:48:21;9.50;99.90
23114;DHT22;11726;50.122;8.832;2023-02-02T14:01:59;9.90;99.90
23114;DHT22;11726;50.122;8.832;2023-02-02T14:04:29;9.80;99.90
23114;DHT22;11726;50.122;8.832;2023-02-02T14:07:00;9.90;99.90
23114;DHT22;11726;50.122;8.832;2023-02-02T14:09:34;9.80;99.90
23114;DHT22;11726;50.122;8.832;2023-02-02T14:12:07;9.80;99.90
23114;DHT22;11726;50.122;8.832;2023-02-02T14:14:36;9.80;99.90
23114;DHT22;11726;50.122;8.832;2023-02-02T14:19:49;9.80;99.90
23114;DHT22;11726;50.122;8.832;2023-02-02T14:22:19;9.80;99.90
23114;DHT22;11726;50.122;8.832;2023-02-02T14:24:48;9.80;99.90
23114;DHT22;11726;50.122;8.832;2023-02-02T14:38:11;9.70;99.90
23114;DHT22;11726;50.122;8.832;2023-02-02T14:43:47;9.90;99.90
23114;DHT22;11726;50.122;8.832;2023-02-02T14:46:43;9.90;99.90
23114;DHT22;11726;50.122;8.832;2023-02-02T14:49:16;9.80;99.90
23114;DHT22;11726;50.122;8.832;2023-02-02T14:51:52;9.90;99.90
23114;DHT22;11726;50.122;8.832;2023-02-02T14:55:00;9.90;99.90
23114;DHT22;11726;50.122;8.832;2023-02-02T14:57:26;9.90;99.90
23114;DHT22;11726;50.122;8.832;2023-02-02T14:59:54;9.80;99.90
23114;DHT22;11726;50.122;8.832;2023-02-02T15:08:24;9.80;99.90
23114;DHT22;11726;50.122;8.832;2023-02-02T15:13:23;9.70;99.90
23114;DHT22;11726;50.122;8.832;2023-02-02T15:16:00;9.60;99.90
23114;DHT22;11726;50.122;8.832;2023-02-02T15:18:36;9.70;99.90
23114;DHT22;11726;50.122;8.832;2023-02-02T15:21:05;9.60;99.90
23114;DHT22;11726;50.122;8.832;2023-02-02T15:23:38;9.50;99.90
23114;DHT22;11726;50.122;8.832;2023-02-02T15:26:11;9.60;99.90
23114;DHT22;11726;50.122;8.832;2023-02-02T15:29:05;9.50;99.90
23114;DHT22;11726;50.122;8.832;2023-02-02T15:31:45;9.40;99.90
23114;DHT22;11726;50.122;8.832;2023-02-02T15:34:29;9.40;99.90
23114;DHT22;11726;50.122;8.832;2023-02-02T15:36:59;9.40;99.90
23114;DHT22;11726;50.122;8.832;2023-02-02T15:39:30;9.40;99.90
23114;DHT22;11726;50.122;8.832;2023-02-02T15:42:02;9.40;99.90
23114;DHT22;11726;50.122;8.832;2023-02-02T15:44:49;9.50;99.90
23114;DHT22;11726;50.122;8.832;2023-02-02T15:47:18;9.50;99.90
23114;DHT22;11726;50.122;8.832;2023-02-02T15:49:45;9.50;99.90
23114;DHT22;11726;50.122;8.832;2023-02-02T15:52:20;9.40;99.90
23114;DHT22;11726;50.122;8.832;2023-02-02T15:54:53;9.40;99.90
23114;DHT22;11726;50.122;8.832;2023-02-02T15:57:26;9.40;99.90
23114;DHT22;11726;50.122;8.832;2023-02-02T15:59:54;9.50;99.90
23114;DHT22;11726;50.122;8.832;2023-02-02T16:02:33;9.60;99.90
23114;DHT22;11726;50.122;8.832;2023-02-02T16:05:01;9.60;99.90
23114;DHT22;11726;50.122;8.832;2023-02-02T16:07:32;9.50;99.90
23114;DHT22;11726;50.122;8.832;2023-02-02T16:10:06;9.50;99.90
23114;DHT22;11726;50.122;8.832;2023-02-02T16:12:34;9.60;99.90
23114;DHT22;11726;50.122;8.832;2023-02-02T16:15:01;9.50;99.90
23114;DHT22;11726;50.122;8.832;2023-02-02T16:17:29;9.60;99.90
23114;DHT22;11726;50.122;8.832;2023-02-02T16:20:08;9.60;99.90
23114;DHT22;11726;50.122;8.832;2023-02-02T16:22:37;9.50;99.90
23114;DHT22;11726;50.122;8.832;2023-02-02T16:25:16;9.60;99.90
23114;DHT22;11726;50.122;8.832;2023-02-02T16:27:45;9.60;99.90
23114;DHT22;11726;50.122;8.832;2023-02-02T16:30:24;9.60;99.90
23114;DHT22;11726;50.122;8.832;2023-02-02T16:32:52;9.50;99.90
23114;DHT22;11726;50.122;8.832;2023-02-02T16:35:33;9.50;99.90
23114;DHT22;11726;50.122;8.832;2023-02-02T16:38:32;9.50;99.90
23114;DHT22;11726;50.122;8.832;2023-02-02T16:41:10;9.60;99.90
23114;DHT22;11726;50.122;8.832;2023-02-02T16:43:41;9.50;99.90
23114;DHT22;11726;50.122;8.832;2023-02-02T16:46:12;9.60;99.90
23114;DHT22;11726;50.122;8.832;2023-02-02T16:56:36;9.50;99.90
23114;DHT22;11726;50.122;8.832;2023-02-02T16:59:06;9.50;99.90
23114;DHT22;11726;50.122;8.832;2023-02-02T17:01:45;9.50;99.90
23114;DHT22;11726;50.122;8.832;2023-02-02T17:04:18;9.50;99.90
23114;DHT22;11726;50.122;8.832;2023-02-02T17:06:46;9.50;99.90
23114;DHT22;11726;50.122;8.832;2023-02-02T17:09:36;9.50;99.90
23114;DHT22;11726;50.122;8.832;2023-02-02T17:12:25;9.50;99.90
23114;DHT22;11726;50.122;8.832;2023-02-02T17:15:23;9.60;99.90
23114;DHT22;11726;50.122;8.832;2023-02-02T17:17:51;9.60;99.90
23114;DHT22;11726;50.122;8.832;2023-02-02T17:20:18;9.60;99.90
23114;DHT22;11726;50.122;8.832;2023-02-02T17:22:48;9.60;99.90
23114;DHT22;11726;50.122;8.832;2023-02-02T17:25:18;9.60;99.90
23114;DHT22;11726;50.122;8.832;2023-02-02T17:27:46;9.60;99.90
23114;DHT22;11726;50.122;8.832;2023-02-02T17:30:17;9.60;99.90
23114;DHT22;11726;50.122;8.832;2023-02-02T17:32:43;9.60;99.90
23114;DHT22;11726;50.122;8.832;2023-02-02T17:35:18;9.60;99.90
23114;DHT22;11726;50.122;8.832;2023-02-02T17:37:45;9.60;99.90
23114;DHT22;11726;50.122;8.832;2023-02-02T17:40:16;9.70;99.90
23114;DHT22;11726;50.122;8.832;2023-02-02T17:42:44;9.70;99.90
23114;DHT22;11726;50.122;8.832;2023-02-02T17:45:23;9.70;99.90
23114;DHT22;11726;50.122;8.832;2023-02-02T17:47:53;9.60;99.90
23114;DHT22;11726;50.122;8.832;2023-02-02T17:50:20;9.60;99.90
23114;DHT22;11726;50.122;8.832;2023-02-02T17:52:48;9.50;99.90
23114;DHT22;11726;50.122;8.832;2023-02-02T17:55:19;9.50;99.90
23114;DHT22;11726;50.122;8.832;2023-02-02T17:57:50;9.50;99.90
23114;DHT22;11726;50.122;8.832;2023-02-02T18:00:19;9.50;99.90
23114;DHT22;11726;50.122;8.832;2023-02-02T18:02:47;9.50;99.90
23114;DHT22;11726;50.122;8.832;2023-02-02T18:05:15;9.60;99.90
23114;DHT22;11726;50.122;8.832;2023-02-02T18:07:43;9.60;99.90
23114;DHT22;11726;50.122;8.832;2023-02-02T18:10:12;9.50;99.90
23114;DHT22;11726;50.122;8.832;2023-02-02T18:12:39;9.50;99.90
23114;DHT22;11726;50.122;8.832;2023-02-02T18:15:08;9.50;99.90
23114;DHT22;11726;50.122;8.832;2023-02-02T18:17:36;9.50;99.90
23114;DHT22;11726;50.122;8.832;2023-02-02T18:20:03;9.60;99.90
23114;DHT22;11726;50.122;8.832;2023-02-02T18:22:30;9.60;99.90
23114;DHT22;11726;50.122;8.832;2023-02-02T18:24:57;9.60;99.90